Flag for India

Past Weather in 18°55'50.1"N, 72°50'38.1"E, India — Yesterday and Last 2 Weeks

Currently: 77 °F. Clear. (Weather station: Mumbai / Santacruz, India). See more current weather

Past Weather in 18°55'50.1"N, 72°50'38.1"E — Graph

°F

18°55'50.1"N, 72°50'38.1"E Temperature Yesterday

Maximum temperature yesterday: 93 °F (at 12:30 pm)
Minimum temperature yesterday: 73 °F (at 3:00 am)
Average temperature yesterday: 83 °F

High & Low Weather Summary for the Past Weeks

 TemperatureHumidityPressure
High95 °F (Feb 2, 2:30 pm)94% (Jan 29, 1:00 am)30.01 "Hg (Jan 29, 1:00 am)
Low66 °F (Jan 25, 6:30 am)23% (Jan 28, 12:30 pm)29.77 "Hg (Jan 27, 3:00 pm)
Average80 °F53%29.87 "Hg
* Reported Jan 25 4:30 am — Feb 9 5:00 am, 18°55'50.1"N, 72°50'38.1"E. Weather by CustomWeather, © 2023

Note: Actual official high and low records may vary slightly from our data, if they occured in-between our weather recording intervals... More about our weather records

18°55'50.1"N, 72°50'38.1"E Weather History for the Previous 24 Hours

Scroll right to see more
 ConditionsComfort  
Time TempWeatherWind HumidityBarometerVisibility
5:00 am
Thu, Feb 9
77 °FClear.No wind54%29.83 "Hg1 mi
4:30 am75 °FHaze.No wind54%29.83 "Hg1 mi
3:30 am73 °FHaze.No wind69%29.83 "Hg1 mi
3:00 am77 °FHaze.No wind61%29.83 "Hg1 mi
2:30 am79 °FClear.3 mph58%29.83 "Hg1 mi
1:00 am81 °FClear.5 mph54%29.86 "Hg1 mi
12:30 am81 °FClear.5 mph51%29.86 "Hg1 mi
12:00 am81 °FClear.5 mph51%29.86 "Hg1 mi
11:30 pm
Wed, Feb 8
81 °FClear.6 mph51%29.89 "Hg1 mi
11:00 pm82 °FClear.6 mph48%29.89 "Hg1 mi
10:30 pm82 °FClear.3 mph48%29.89 "Hg2 mi
9:30 pm82 °FClear.6 mph48%29.89 "Hg2 mi
9:00 pm82 °FClear.5 mph51%29.86 "Hg2 mi
8:30 pm84 °FClear.6 mph45%29.86 "Hg2 mi
8:00 pm84 °FClear.8 mph45%29.86 "Hg2 mi
7:00 pm84 °FClear.5 mph43%29.83 "Hg2 mi
6:30 pm86 °FClear.6 mph38%29.83 "Hg2 mi
5:30 pm88 °FClear.9 mph33%29.80 "Hg2 mi
5:00 pm88 °FClear.9 mph31%29.80 "Hg2 mi
4:30 pm90 °FClear.9 mph33%29.80 "Hg2 mi
4:00 pm90 °FClear.9 mph33%29.80 "Hg2 mi
3:30 pm90 °FClear.12 mph36%29.80 "Hg2 mi
3:00 pm91 °FClear.12 mph34%29.80 "Hg2 mi
2:30 pm91 °FClear.10 mph38%29.80 "Hg1 mi
2:00 pm90 °FClear.12 mph43%29.83 "Hg1 mi
1:30 pm91 °FClear.10 mph38%29.86 "Hg1 mi
1:00 pm91 °FClear.8 mph36%29.86 "Hg1 mi
12:30 pm93 °FClear.5 mph23%29.89 "Hg1 mi
12:00 pm90 °FClear.5 mph31%29.92 "Hg1 mi
11:30 am90 °FClear.5 mph31%29.92 "Hg1 mi
11:00 am88 °FClear.3 mph35%29.95 "Hg1 mi
10:30 am86 °FClear.5 mph35%29.95 "Hg1 mi
10:00 am82 °FClear.5 mph40%29.95 "Hg1 mi
9:30 am81 °FClear.8 mph42%29.92 "Hg1 mi
9:00 am77 °FHaze.3 mph61%29.92 "Hg1 mi
8:30 am75 °FHaze.3 mph65%29.92 "Hg1 mi
8:00 am75 °FHaze.No wind65%29.89 "Hg1 mi
7:30 am73 °FHaze.3 mph61%29.89 "Hg1 mi
7:00 am75 °FHaze.3 mph57%29.86 "Hg1 mi
Weather by CustomWeather, © 2023

See weather overview